Coker, AL (35452)

7:56 PM CST on March 01, 2015 (GMT -0600)
Highland Park | Change Station
CLOSE
Current Station
Personal Weather Station
Location: Northport, AL
Elevation: 282 ft
Nearby Weather Stations

Elev 282 ft 33.26 °N, 87.62 °W | Updated 11 minutes ago

Overcast
Overcast
54.7 °F
Feels Like 54.7 °F
N
1.7
Wind Variable Wind from NE

Today
High -- | Low -- °F
--% Chance of Precip.
Yesterday
High -- | Low -- °F
Precip. -- in
6:19 AM 5:47 PM
Waxing Gibbous, 88% visible
Pressure 30.33 in
Visibility 7.0 miles
Clouds Overcast 1500 ft
Dew Point 54 °F
Humidity 99%
Rainfall 0.00 in
Snow Depth Not available.
UV 0 out of 12
Pollen 9.20 out of 12
Air Quality Not available.
Flu Activity Not available.
METAR KTCL 020053Z 03003KT 7SM -RA OVC015 13/11 A3033 RMK AO2 RAB02 SLP270 P0003 T01330111

More Conditions Fewer Conditions

Pressure 30.33 in
Visibility 7.0 miles
Clouds Overcast 1500 ft
Dew Point 54 °F
Humidity 99%
Rainfall 0.00 in
Snow Depth Not available.
UV 0 out of 12
Pollen 9.20 out of 12
Air Quality Not available.
Flu Activity Not available.
METAR KTCL 020053Z 03003KT 7SM -RA OVC015 13/11 A3033 RMK AO2 RAB02 SLP270 P0003 T01330111

More Conditions Fewer Conditions

10-Day Weather Forecast

Almanac

Astronomy

Mar. 01, 2015 Rise Set
Actual Time
Civil Twilight
Nautical Twilight
Astronomical Twilight
Moon
Length of Visible Light
Length of Day
Tomorrow will be .
, % of the Moon is Illuminated

Today's Extremes

State Highs State Lows

Community

WunderPhotos

Upload Photos

1,801,677 photos uploaded!

WunderBlogs® & News

Nearby

Air Quality

  Air Quality AQ Index Pollutant
Not available.

Snow Depth

Station Depth Elevation

Earthquake Activity

City Distance Mag. Time & Date
Minimum magnitude displayed is 2.5.

Coastal Water Temperatures

Place Temperature

Nearby Weather Stations